createdAt,value
2023-01-11T00:02:16.587Z,8.80
2023-01-11T00:04:43.114Z,8.05
2023-01-11T00:07:09.656Z,8.15
2023-01-11T00:09:36.201Z,7.53
2023-01-11T00:12:02.710Z,8.07
2023-01-11T00:14:29.282Z,7.70
2023-01-11T00:16:59.030Z,8.65
2023-01-11T00:19:25.571Z,7.57
2023-01-11T00:21:52.051Z,8.50
2023-01-11T00:24:18.564Z,7.07
2023-01-11T00:26:45.032Z,7.93
2023-01-11T00:29:11.488Z,6.13
2023-01-11T00:31:38.039Z,5.60
2023-01-11T00:34:07.315Z,6.80
2023-01-11T00:36:34.842Z,6.97
2023-01-11T00:39:01.945Z,8.25
2023-01-11T00:41:47.196Z,7.40
2023-01-11T00:44:32.544Z,7.63
2023-01-11T00:47:17.670Z,7.93
2023-01-11T00:49:44.505Z,8.60
2023-01-11T00:52:12.044Z,6.85
2023-01-11T00:54:39.527Z,8.63
2023-01-11T00:57:08.334Z,7.75
2023-01-11T00:59:35.640Z,7.80
2023-01-11T01:02:02.435Z,8.02
2023-01-11T01:04:29.021Z,8.40
2023-01-11T01:09:35.881Z,6.30
2023-01-11T01:12:02.406Z,8.40
2023-01-11T01:14:31.918Z,7.85
2023-01-11T01:17:07.426Z,10.13
2023-01-11T01:19:36.030Z,8.55
2023-01-11T01:22:02.963Z,10.25
2023-01-11T01:24:31.365Z,7.77
2023-01-11T01:26:58.693Z,10.18
2023-01-11T01:29:29.437Z,10.85
2023-01-11T01:31:55.944Z,10.90
2023-01-11T01:34:22.467Z,10.18
2023-01-11T01:36:51.215Z,11.43
2023-01-11T01:39:20.094Z,11.30
2023-01-11T01:41:46.557Z,9.93
2023-01-11T01:44:56.453Z,10.25
2023-01-11T01:47:53.093Z,8.10
2023-01-11T01:50:23.928Z,10.30
2023-01-11T01:52:52.321Z,12.25
2023-01-11T01:55:25.826Z,10.95
2023-01-11T01:57:55.316Z,12.40
2023-01-11T02:00:22.040Z,12.75
2023-01-11T02:02:51.790Z,11.57
2023-01-11T02:05:18.542Z,11.38
2023-01-11T02:07:45.919Z,12.18
2023-01-11T02:28:57.816Z,10.73
2023-01-11T02:31:56.285Z,11.50
2023-01-11T02:34:44.869Z,10.70
2023-01-11T02:37:43.293Z,10.05
2023-01-11T02:40:40.896Z,11.90
2023-01-11T02:43:36.469Z,14.60
2023-01-11T02:46:13.395Z,15.15
2023-01-11T02:48:50.272Z,15.30
2023-01-11T02:51:32.861Z,12.30
2023-01-11T02:54:02.864Z,13.90
2023-01-11T02:56:34.259Z,13.32
2023-01-11T02:59:01.772Z,15.32
2023-01-11T03:01:28.341Z,14.47
2023-01-11T03:03:55.180Z,14.07
2023-01-11T03:06:32.490Z,14.30
2023-01-11T03:09:19.841Z,14.13
2023-01-11T03:12:38.796Z,14.43
2023-01-11T03:15:43.038Z,11.27
2023-01-11T03:18:24.368Z,11.15
2023-01-11T03:21:08.975Z,11.32
2023-01-11T03:23:45.897Z,8.45
2023-01-11T03:26:34.285Z,10.02
2023-01-11T03:29:15.532Z,12.57
2023-01-11T03:31:50.395Z,11.50
2023-01-11T03:34:31.276Z,9.25
2023-01-11T03:37:11.364Z,11.25
2023-01-11T03:39:44.582Z,10.70
2023-01-11T03:42:14.266Z,10.80
2023-01-11T03:44:44.114Z,8.20
2023-01-11T03:47:13.245Z,10.27
2023-01-11T03:49:44.879Z,9.10
2023-01-11T03:52:18.279Z,10.45
2023-01-11T03:54:45.491Z,8.97
2023-01-11T03:57:20.699Z,9.25
2023-01-11T03:59:52.132Z,9.05
2023-01-11T04:02:27.428Z,7.05
2023-01-11T04:04:54.126Z,8.70
2023-01-11T04:07:20.648Z,9.10
2023-01-11T04:09:47.162Z,8.88
2023-01-11T04:12:15.705Z,10.55
2023-01-11T04:14:45.463Z,10.75
2023-01-11T04:17:12.004Z,7.40
2023-01-11T04:19:39.725Z,7.63
2023-01-11T04:22:08.924Z,11.98
2023-01-11T04:24:35.423Z,12.02
2023-01-11T04:27:05.311Z,8.23
2023-01-11T04:29:31.783Z,9.80
2023-01-11T04:31:59.462Z,10.87
2023-01-11T04:34:25.982Z,10.73
2023-01-11T04:36:52.446Z,6.30
2023-01-11T04:39:18.926Z,11.77
2023-01-11T04:42:06.180Z,13.57
2023-01-11T04:44:32.678Z,12.83
2023-01-11T04:47:09.263Z,12.65
2023-01-11T04:49:35.833Z,11.73
2023-01-11T04:52:02.361Z,11.15
2023-01-11T04:54:28.990Z,10.00
2023-01-11T04:56:55.577Z,10.33
2023-01-11T04:59:22.144Z,8.63
2023-01-11T05:01:49.093Z,9.30
2023-01-11T05:04:15.853Z,8.27
2023-01-11T05:06:43.197Z,13.75
2023-01-11T05:09:15.238Z,13.33
2023-01-11T05:11:41.879Z,12.25
2023-01-11T05:14:23.991Z,9.57
2023-01-11T05:16:50.736Z,11.05
2023-01-11T05:19:17.732Z,5.90
2023-01-11T05:21:47.377Z,7.97
2023-01-11T05:24:17.205Z,8.90
2023-01-11T05:26:45.919Z,10.45
2023-01-11T05:29:20.037Z,13.00
2023-01-11T05:31:52.524Z,10.23
2023-01-11T05:34:26.402Z,9.20
2023-01-11T05:36:59.981Z,9.93
2023-01-11T05:39:26.569Z,7.70
2023-01-11T05:41:53.095Z,9.98
2023-01-11T05:44:38.437Z,9.85
2023-01-11T05:47:05.166Z,8.20
2023-01-11T05:49:33.772Z,8.32
2023-01-11T05:52:03.150Z,8.73
2023-01-11T05:54:29.592Z,6.60
2023-01-11T05:56:59.158Z,9.80
2023-01-11T05:59:27.030Z,9.60
2023-01-11T06:01:53.619Z,9.82
2023-01-11T06:04:20.106Z,8.20
2023-01-11T06:06:47.842Z,10.35
2023-01-11T06:09:15.384Z,7.72
2023-01-11T06:11:45.673Z,10.40
2023-01-11T06:14:13.550Z,9.48
2023-01-11T06:16:47.506Z,10.63
2023-01-11T06:19:15.093Z,8.98
2023-01-11T06:21:41.637Z,8.85
2023-01-11T06:24:08.111Z,7.43
2023-01-11T06:26:34.619Z,9.05
2023-01-11T06:29:01.166Z,7.05
2023-01-11T06:31:27.708Z,11.00
2023-01-11T06:33:54.225Z,12.65
2023-01-11T06:36:20.687Z,5.77
2023-01-11T06:38:50.299Z,7.65
2023-01-11T06:41:19.233Z,6.90
2023-01-11T06:43:47.070Z,6.93
2023-01-11T06:46:15.276Z,7.72
2023-01-11T06:48:42.396Z,10.37
2023-01-11T06:51:12.296Z,10.98
2023-01-11T06:53:39.637Z,9.38
2023-01-11T06:56:10.530Z,8.30
2023-01-11T06:58:38.511Z,8.05
2023-01-11T07:01:05.491Z,7.47
2023-01-11T07:03:33.474Z,8.40
2023-01-11T07:06:04.785Z,8.73
2023-01-11T07:08:34.353Z,6.65
2023-01-11T07:11:00.933Z,6.15
2023-01-11T07:13:29.779Z,5.90
2023-01-11T07:15:57.471Z,7.63
2023-01-11T07:18:30.074Z,6.90
2023-01-11T07:20:56.561Z,5.80
2023-01-11T07:23:23.077Z,6.97
2023-01-11T07:25:49.908Z,7.90
2023-01-11T07:28:16.674Z,6.68
2023-01-11T07:30:56.643Z,5.35
2023-01-11T07:33:24.686Z,6.93
2023-01-11T07:35:51.204Z,6.82
2023-01-11T07:38:17.739Z,7.73
2023-01-11T07:40:44.240Z,7.57
2023-01-11T07:43:14.930Z,5.25
2023-01-11T07:45:46.672Z,8.95
2023-01-11T07:48:14.233Z,7.22
2023-01-11T07:50:44.195Z,6.27
2023-01-11T07:53:11.674Z,4.63
2023-01-11T07:55:39.697Z,5.07
2023-01-11T07:58:07.474Z,9.50
2023-01-11T08:00:34.058Z,6.93
2023-01-11T08:03:00.756Z,8.20
2023-01-11T08:05:27.411Z,7.28
2023-01-11T08:07:53.947Z,7.22
2023-01-11T08:10:20.416Z,7.95
2023-01-11T08:13:07.268Z,7.93
2023-01-11T08:15:35.813Z,5.53
2023-01-11T08:18:06.597Z,5.75
2023-01-11T08:20:33.259Z,10.05
2023-01-11T08:23:06.423Z,10.82
2023-01-11T08:25:33.351Z,5.85
2023-01-11T08:28:01.847Z,9.77
2023-01-11T08:30:28.963Z,7.22
2023-01-11T08:32:57.097Z,5.82
2023-01-11T08:35:25.352Z,6.55
2023-01-11T08:37:51.858Z,10.40
2023-01-11T08:40:18.546Z,6.13
2023-01-11T08:42:45.047Z,11.40
2023-01-11T08:45:11.664Z,6.22
2023-01-11T08:47:38.181Z,7.00
2023-01-11T08:50:05.675Z,6.68
2023-01-11T08:52:32.197Z,4.70
2023-01-11T08:54:58.666Z,6.40
2023-01-11T08:57:25.245Z,5.78
2023-01-11T08:59:51.694Z,7.25
2023-01-11T09:02:18.163Z,4.78
2023-01-11T09:04:44.656Z,8.03
2023-01-11T09:07:11.189Z,8.45
2023-01-11T09:09:37.729Z,6.75
2023-01-11T09:12:05.829Z,5.40
2023-01-11T09:14:32.538Z,4.97
2023-01-11T09:16:59.161Z,5.57
2023-01-11T09:19:25.973Z,4.18
2023-01-11T09:21:53.160Z,8.57
2023-01-11T09:24:19.729Z,7.35
2023-01-11T09:26:46.378Z,6.07
2023-01-11T09:29:13.701Z,5.93
2023-01-11T09:31:40.272Z,6.95
2023-01-11T09:34:08.160Z,6.43
2023-01-11T09:36:36.282Z,3.67
2023-01-11T09:39:07.523Z,6.63
2023-01-11T09:41:43.216Z,5.50
2023-01-11T09:44:16.476Z,5.93
2023-01-11T09:46:50.543Z,5.90
2023-01-11T09:49:20.497Z,6.82
2023-01-11T09:51:47.880Z,5.15
2023-01-11T09:54:18.612Z,6.43
2023-01-11T09:56:53.677Z,5.68
2023-01-11T09:59:27.038Z,6.13
2023-01-11T10:02:05.432Z,5.82
2023-01-11T10:04:48.506Z,4.43
2023-01-11T10:07:26.972Z,7.80
2023-01-11T10:18:27.478Z,5.97
2023-01-11T10:19:36.013Z,5.05
2023-01-11T10:22:09.512Z,5.90
2023-01-11T10:24:55.026Z,6.82
2023-01-11T10:27:32.594Z,3.45
2023-01-11T10:30:32.830Z,5.38
2023-01-11T10:33:42.618Z,5.93
2023-01-11T10:36:34.833Z,3.67
2023-01-11T10:39:29.807Z,3.65
2023-01-11T10:42:07.846Z,2.72
2023-01-11T10:45:23.711Z,4.68
2023-01-11T10:47:59.457Z,3.10
2023-01-11T10:51:01.865Z,5.03
2023-01-11T10:54:17.943Z,6.15
2023-01-11T10:57:13.489Z,3.85
2023-01-11T10:59:41.109Z,4.25
2023-01-11T11:02:26.332Z,6.57
2023-01-11T11:04:55.567Z,5.20
2023-01-11T11:07:32.307Z,6.40
2023-01-11T11:10:19.568Z,4.07
2023-01-11T11:13:06.681Z,4.88
2023-01-11T11:15:43.947Z,4.93
2023-01-11T11:18:10.863Z,7.73
2023-01-11T11:20:37.457Z,5.57
2023-01-11T11:23:04.045Z,4.72
2023-01-11T11:25:38.691Z,3.83
2023-01-11T11:28:26.344Z,4.57
2023-01-11T11:30:57.664Z,5.27
2023-01-11T11:33:38.064Z,4.95
2023-01-11T11:36:06.079Z,5.38
2023-01-11T11:38:38.179Z,5.53
2023-01-11T11:41:04.779Z,4.78
2023-01-11T11:43:33.133Z,4.67
2023-01-11T11:46:02.227Z,7.45
2023-01-11T11:48:31.603Z,4.43
2023-01-11T11:51:01.312Z,5.03
2023-01-11T11:53:52.074Z,6.88
2023-01-11T11:56:25.528Z,6.17
2023-01-11T11:58:52.809Z,4.43
2023-01-11T12:01:40.179Z,6.75
2023-01-11T12:04:21.349Z,4.65
2023-01-11T12:07:04.080Z,6.43
2023-01-11T12:09:32.041Z,5.33
2023-01-11T12:11:59.240Z,5.60
2023-01-11T12:14:29.833Z,5.35
2023-01-11T12:16:57.732Z,5.15
2023-01-11T12:19:34.668Z,4.10
2023-01-11T12:22:14.040Z,4.23
2023-01-11T12:24:40.573Z,4.65
2023-01-11T12:27:21.820Z,5.32
2023-01-11T12:30:08.446Z,4.97
2023-01-11T12:32:56.753Z,4.78
2023-01-11T12:35:45.072Z,4.43
2023-01-11T12:38:49.947Z,4.47
2023-01-11T12:41:43.111Z,4.18
2023-01-11T12:44:21.787Z,7.55
2023-01-11T12:47:40.122Z,5.00
2023-01-11T12:50:06.587Z,4.73
2023-01-11T12:52:58.658Z,5.95
2023-01-11T12:55:52.616Z,3.60
2023-01-11T12:58:40.430Z,6.05
2023-01-11T13:01:15.078Z,8.50
2023-01-11T13:04:02.601Z,5.77
2023-01-11T13:06:44.366Z,6.30
2023-01-11T13:09:18.631Z,5.47
2023-01-11T13:11:55.306Z,4.53
2023-01-11T13:14:39.827Z,3.35
2023-01-11T13:17:43.410Z,5.53
2023-01-11T13:20:17.095Z,6.85
2023-01-11T13:22:48.239Z,6.82
2023-01-11T13:25:22.910Z,6.32
2023-01-11T13:27:50.813Z,4.10
2023-01-11T13:30:19.872Z,4.90
2023-01-11T13:32:57.402Z,3.95
2023-01-11T13:35:44.965Z,4.78
2023-01-11T13:38:27.810Z,3.97
2023-01-11T13:41:00.735Z,3.83
2023-01-11T13:43:41.388Z,4.90
2023-01-11T13:46:16.374Z,5.15
2023-01-11T13:49:24.518Z,4.43
2023-01-11T13:52:00.673Z,4.38
2023-01-11T13:54:47.306Z,5.88
2023-01-11T13:57:39.212Z,5.33
2023-01-11T14:00:23.255Z,5.15
2023-01-11T14:02:59.188Z,5.95
2023-01-11T14:05:28.458Z,6.45
2023-01-11T14:08:22.525Z,4.40
2023-01-11T14:11:07.935Z,4.10
2023-01-11T14:13:56.361Z,5.10
2023-01-11T14:16:32.563Z,6.78
2023-01-11T14:19:28.281Z,7.68
2023-01-11T14:22:09.620Z,5.18
2023-01-11T14:24:38.412Z,2.73
2023-01-11T14:27:16.284Z,6.22
2023-01-11T14:30:15.086Z,5.50
2023-01-11T14:32:56.552Z,6.00
2023-01-11T14:36:02.975Z,4.78
2023-01-11T14:38:57.875Z,5.50
2023-01-11T14:41:55.258Z,3.47
2023-01-11T14:44:40.415Z,6.80
2023-01-11T14:47:10.687Z,6.13
2023-01-11T14:49:48.645Z,5.72
2023-01-11T14:52:34.428Z,4.13
2023-01-11T14:55:16.682Z,4.78
2023-01-11T14:57:55.291Z,5.22
2023-01-11T15:00:27.929Z,6.35
2023-01-11T15:02:59.435Z,7.88
2023-01-11T15:05:32.883Z,6.30
2023-01-11T15:08:14.637Z,6.53
2023-01-11T15:10:49.849Z,5.78
2023-01-11T15:13:22.990Z,7.70
2023-01-11T15:16:09.043Z,4.95
2023-01-11T15:18:44.417Z,4.23
2023-01-11T15:21:18.505Z,5.05
2023-01-11T15:24:05.507Z,8.50
2023-01-11T15:26:32.107Z,4.93
2023-01-11T15:29:01.163Z,4.35
2023-01-11T15:31:53.898Z,4.30
2023-01-11T15:34:28.062Z,7.47
2023-01-11T15:36:57.171Z,5.43
2023-01-11T15:39:55.887Z,5.68
2023-01-11T15:42:48.685Z,3.55
2023-01-11T15:45:31.631Z,4.80
2023-01-11T15:48:46.436Z,5.53
2023-01-11T15:51:35.521Z,4.40
2023-01-11T15:54:14.300Z,4.53
2023-01-11T15:57:07.958Z,5.20
2023-01-11T16:00:12.925Z,7.80
2023-01-11T16:02:47.394Z,4.97
2023-01-11T16:05:16.736Z,4.22
2023-01-11T16:08:02.062Z,5.93
2023-01-11T16:10:50.270Z,4.05
2023-01-11T16:13:31.309Z,5.93
2023-01-11T16:16:15.990Z,4.88
2023-01-11T16:18:46.241Z,3.97
2023-01-11T16:21:36.457Z,3.50
2023-01-11T16:24:08.379Z,3.78
2023-01-11T16:26:36.238Z,3.67
2023-01-11T16:29:11.042Z,3.10
2023-01-11T16:31:59.222Z,4.68
2023-01-11T16:34:28.033Z,3.42
2023-01-11T16:36:55.476Z,4.55
2023-01-11T16:39:24.121Z,5.43
2023-01-11T16:41:57.813Z,5.05
2023-01-11T16:44:33.210Z,3.72
2023-01-11T16:47:19.728Z,4.70
2023-01-11T16:49:50.087Z,6.50
2023-01-11T16:52:28.901Z,5.90
2023-01-11T16:54:56.820Z,5.30
2023-01-11T16:57:44.567Z,5.50
2023-01-11T17:00:22.355Z,5.78
2023-01-11T17:02:53.553Z,4.85
2023-01-11T17:05:23.253Z,5.27
2023-01-11T17:07:51.924Z,5.75
2023-01-11T17:10:21.284Z,5.60
2023-01-11T17:13:05.849Z,5.13
2023-01-11T17:15:46.700Z,5.00
2023-01-11T17:18:13.258Z,5.13
2023-01-11T17:20:39.729Z,5.65
2023-01-11T17:23:06.486Z,7.70
2023-01-11T17:25:44.273Z,5.38
2023-01-11T17:28:18.511Z,5.72
2023-01-11T17:30:49.232Z,4.87
2023-01-11T17:33:32.543Z,4.00
2023-01-11T17:35:59.819Z,5.00
2023-01-11T17:38:45.475Z,5.80
2023-01-11T17:41:32.559Z,7.72
2023-01-11T17:44:18.146Z,5.73
2023-01-11T17:46:46.069Z,5.80
2023-01-11T17:49:23.687Z,5.10
2023-01-11T17:51:50.251Z,5.75
2023-01-11T17:54:23.273Z,4.97
2023-01-11T17:56:58.838Z,4.43
2023-01-11T17:59:30.367Z,5.07
2023-01-11T18:01:59.593Z,4.80
2023-01-11T18:04:27.415Z,4.35
2023-01-11T18:06:56.370Z,6.07
2023-01-11T18:09:29.133Z,5.37
2023-01-11T18:12:22.000Z,5.45
2023-01-11T18:14:52.926Z,3.53
2023-01-11T18:17:30.893Z,4.65
2023-01-11T18:19:57.572Z,4.28
2023-01-11T18:22:31.359Z,4.13
2023-01-11T18:25:04.248Z,6.78
2023-01-11T18:27:34.856Z,6.60
2023-01-11T18:30:07.796Z,5.18
2023-01-11T18:32:43.376Z,6.05
2023-01-11T18:35:18.425Z,6.03
2023-01-11T18:37:45.235Z,4.07
2023-01-11T18:40:13.648Z,5.45
2023-01-11T18:42:42.841Z,4.72
2023-01-11T18:45:10.875Z,4.78
2023-01-11T18:47:38.696Z,4.40
2023-01-11T18:50:05.993Z,5.50
2023-01-11T18:52:32.981Z,5.57
2023-01-11T18:54:59.542Z,4.55
2023-01-11T18:57:26.103Z,5.50
2023-01-11T18:59:52.873Z,5.03
2023-01-11T19:02:31.844Z,4.60
2023-01-11T19:04:58.426Z,4.97
2023-01-11T19:07:26.160Z,7.35
2023-01-11T19:12:35.239Z,7.47
2023-01-11T19:15:05.127Z,8.40
2023-01-11T19:17:32.039Z,7.60
2023-01-11T19:19:58.596Z,8.57
2023-01-11T19:22:27.030Z,7.97
2023-01-11T19:24:54.249Z,7.27
2023-01-11T19:27:21.110Z,5.93
2023-01-11T19:29:47.703Z,9.80
2023-01-11T19:32:15.651Z,7.65
2023-01-11T19:34:46.162Z,6.88
2023-01-11T19:37:13.852Z,7.97
2023-01-11T19:39:41.225Z,9.57
2023-01-11T19:42:07.873Z,8.38
2023-01-11T19:44:39.406Z,10.07
2023-01-11T19:47:12.344Z,9.68
2023-01-11T19:49:40.789Z,6.53
2023-01-11T19:52:12.737Z,6.88
2023-01-11T19:54:45.816Z,9.55
2023-01-11T19:57:20.967Z,9.05
2023-01-11T19:59:48.391Z,8.85
2023-01-11T20:02:17.641Z,6.80
2023-01-11T20:04:44.163Z,7.68
2023-01-11T20:07:12.342Z,5.88
2023-01-11T20:09:47.638Z,9.25
2023-01-11T20:12:17.683Z,7.82
2023-01-11T20:14:46.647Z,9.57
2023-01-11T20:17:14.181Z,6.60
2023-01-11T20:19:43.318Z,9.32
2023-01-11T20:22:10.051Z,7.25
2023-01-11T20:24:38.564Z,6.55
2023-01-11T20:27:07.018Z,10.03
2023-01-11T20:29:38.783Z,5.95
2023-01-11T20:32:31.105Z,8.20
2023-01-11T20:35:17.430Z,9.57
2023-01-11T20:37:44.466Z,8.27
2023-01-11T20:40:13.612Z,8.73
2023-01-11T20:42:40.882Z,8.13
2023-01-11T20:45:10.302Z,6.10
2023-01-11T20:47:37.835Z,8.35
2023-01-11T20:50:04.559Z,4.28
2023-01-11T20:52:31.111Z,10.00
2023-01-11T20:54:57.649Z,5.38
2023-01-11T20:57:24.358Z,7.53
2023-01-11T20:59:51.098Z,8.43
2023-01-11T21:02:17.683Z,7.25
2023-01-11T21:04:45.583Z,7.20
2023-01-11T21:07:14.160Z,8.82
2023-01-11T21:09:41.930Z,7.22
2023-01-11T21:12:09.617Z,6.07
2023-01-11T21:14:37.643Z,8.07
2023-01-11T21:17:04.111Z,8.97
2023-01-11T21:19:31.141Z,6.82
2023-01-11T21:21:58.034Z,8.10
2023-01-11T21:24:24.597Z,7.30
2023-01-11T21:26:51.580Z,5.00
2023-01-11T21:29:18.313Z,6.23
2023-01-11T21:31:44.828Z,5.72
2023-01-11T21:34:12.784Z,6.78
2023-01-11T21:36:40.067Z,6.47
2023-01-11T21:39:06.975Z,6.43
2023-01-11T21:41:52.840Z,6.87
2023-01-11T21:44:20.160Z,4.55
2023-01-11T21:46:49.887Z,6.80
2023-01-11T21:49:19.474Z,5.93
2023-01-11T21:51:46.093Z,6.97
2023-01-11T21:54:14.332Z,7.40
2023-01-11T21:56:44.338Z,6.45
2023-01-11T21:59:10.852Z,6.82
2023-01-11T22:01:39.519Z,6.43
2023-01-11T22:04:07.402Z,7.32
2023-01-11T22:06:38.247Z,4.80
2023-01-11T22:09:08.395Z,6.47
2023-01-11T22:11:34.983Z,5.82
2023-01-11T22:14:02.715Z,6.45
2023-01-11T22:16:31.617Z,6.25
2023-01-11T22:19:01.122Z,7.17
2023-01-11T22:21:28.159Z,6.47
2023-01-11T22:23:56.632Z,6.93
2023-01-11T22:26:23.898Z,6.45
2023-01-11T22:29:12.744Z,6.53
2023-01-11T22:31:41.591Z,5.97
2023-01-11T22:34:10.359Z,6.68
2023-01-11T22:36:36.890Z,6.25
2023-01-11T22:39:03.503Z,6.03
2023-01-11T22:41:31.506Z,6.20
2023-01-11T22:43:59.352Z,5.90
2023-01-11T22:46:28.033Z,6.18
2023-01-11T22:48:55.701Z,5.93
2023-01-11T22:51:25.082Z,5.63
2023-01-11T22:53:52.997Z,6.00
2023-01-11T22:56:22.701Z,5.73
2023-01-11T22:58:51.980Z,6.50
2023-01-11T23:01:24.218Z,5.53
2023-01-11T23:03:51.739Z,5.68
2023-01-11T23:06:23.487Z,5.55
2023-01-11T23:08:54.665Z,5.60
2023-01-11T23:11:47.302Z,5.72
2023-01-11T23:14:17.117Z,5.55
2023-01-11T23:16:45.208Z,5.72
2023-01-11T23:19:15.401Z,5.53
2023-01-11T23:21:44.125Z,6.30
2023-01-11T23:24:12.225Z,6.40
2023-01-11T23:26:38.764Z,5.60
2023-01-11T23:29:05.974Z,6.28
2023-01-11T23:31:34.564Z,6.63
2023-01-11T23:34:02.245Z,6.47
2023-01-11T23:36:34.508Z,6.30
2023-01-11T23:39:01.421Z,5.50
2023-01-11T23:41:48.902Z,5.63
2023-01-11T23:44:16.955Z,5.13
2023-01-11T23:47:02.463Z,5.93
2023-01-11T23:49:29.527Z,5.93
2023-01-11T23:51:56.791Z,6.03
2023-01-11T23:54:26.448Z,5.95
2023-01-11T23:56:56.534Z,6.00
2023-01-11T23:59:23.144Z,5.70
